Leesville, South Carolina
Current Conditions -  °F | °C
As of 11:35 AM on Monday 24 Nov 2014 (Local Time) from KAIK Reporting Station
Overcast Overcast  
Wind Chill: 70°   Ceiling: 1300
Heat Index: 70°   Visibility: 10mi
Dew Point: 70°   Wind: 8mph
Humidity: 100%   Direction: 210°SSW
Pressure: 29.88"   Gusts: NA
Location:  33.92°N, 81.51°W
Report Text: KAIK 241635Z AUTO 21007KT 10SM BKN013 BKN050 OVC075 21/21 A2988 RMK AO2 LTG DSNT E PNO
Loading
Personal Weather Stations






























Interactive Weather Map New forecast layout! Learn more

10-Day Weather Forecast

Advertisements
Track Severe Weather on mobile